Terminal Aerodrome Forecast
Issued by NWS North Platte, NE

Home | Current Version | Previous Version | Text Only | Print | Product List | Glossary Off
Versions: 1 2 3 4 5 6 7 8 9 10 11 12 13 14 15 16 17 18 19 20 21 22

325
FTUS43 KLBF 172320
TAFVTN
TAF
KVTN 172320Z 1800/1824 16012G18KT P6SM SCT200
     FM180400 18008KT P6SM SCT250
     FM181400 09005KT P6SM SCT150
     FM181700 06007KT P6SM BKN150
     FM181900 06008KT P6SM SCT150=

USA.gov is the U.S. government's official web portal to all federal, state and local government web resources and services.